sensor_id;sensor_type;location;lat;lon;timestamp;temperature;humidity
32865;DHT22;19219;44.500;11.188;2023-07-13T00:01:34;27.80;99.90
32865;DHT22;19219;44.500;11.188;2023-07-13T00:04:01;27.70;99.90
32865;DHT22;19219;44.500;11.188;2023-07-13T00:06:26;27.70;99.90
32865;DHT22;19219;44.500;11.188;2023-07-13T00:08:55;27.60;99.90
32865;DHT22;19219;44.500;11.188;2023-07-13T00:11:21;27.60;99.90
32865;DHT22;19219;44.500;11.188;2023-07-13T00:13:47;27.60;99.90
32865;DHT22;19219;44.500;11.188;2023-07-13T00:16:14;27.60;99.90
32865;DHT22;19219;44.500;11.188;2023-07-13T00:18:40;27.60;99.90
32865;DHT22;19219;44.500;11.188;2023-07-13T00:21:06;27.60;99.90
32865;DHT22;19219;44.500;11.188;2023-07-13T00:23:38;27.50;99.90
32865;DHT22;19219;44.500;11.188;2023-07-13T00:26:04;27.40;99.90
32865;DHT22;19219;44.500;11.188;2023-07-13T00:28:30;27.30;99.90
32865;DHT22;19219;44.500;11.188;2023-07-13T00:30:56;27.30;99.90
32865;DHT22;19219;44.500;11.188;2023-07-13T00:33:22;27.30;99.90
32865;DHT22;19219;44.500;11.188;2023-07-13T00:35:49;27.30;99.90
32865;DHT22;19219;44.500;11.188;2023-07-13T00:38:15;27.30;99.90
32865;DHT22;19219;44.500;11.188;2023-07-13T00:40:41;27.30;99.90
32865;DHT22;19219;44.500;11.188;2023-07-13T00:43:36;27.30;99.90
32865;DHT22;19219;44.500;11.188;2023-07-13T00:46:09;27.40;99.90
32865;DHT22;19219;44.500;11.188;2023-07-13T00:48:36;27.40;99.90
32865;DHT22;19219;44.500;11.188;2023-07-13T00:51:03;27.40;99.90
32865;DHT22;19219;44.500;11.188;2023-07-13T00:53:29;27.50;99.90
32865;DHT22;19219;44.500;11.188;2023-07-13T00:55:57;27.40;99.90
32865;DHT22;19219;44.500;11.188;2023-07-13T00:58:25;27.40;99.90
32865;DHT22;19219;44.500;11.188;2023-07-13T01:00:51;27.40;99.90
32865;DHT22;19219;44.500;11.188;2023-07-13T01:03:19;27.30;99.90
32865;DHT22;19219;44.500;11.188;2023-07-13T01:05:47;27.20;99.90
32865;DHT22;19219;44.500;11.188;2023-07-13T01:08:14;27.20;99.90
32865;DHT22;19219;44.500;11.188;2023-07-13T01:10:39;27.20;99.90
32865;DHT22;19219;44.500;11.188;2023-07-13T01:13:10;27.10;99.90
32865;DHT22;19219;44.500;11.188;2023-07-13T01:15:44;27.10;99.90
32865;DHT22;19219;44.500;11.188;2023-07-13T01:18:13;27.10;99.90
32865;DHT22;19219;44.500;11.188;2023-07-13T01:20:40;27.10;99.90
32865;DHT22;19219;44.500;11.188;2023-07-13T01:23:09;27.10;99.90
32865;DHT22;19219;44.500;11.188;2023-07-13T01:25:36;27.00;99.90
32865;DHT22;19219;44.500;11.188;2023-07-13T01:28:07;27.00;99.90
32865;DHT22;19219;44.500;11.188;2023-07-13T01:30:38;26.90;99.90
32865;DHT22;19219;44.500;11.188;2023-07-13T01:33:06;27.00;99.90
32865;DHT22;19219;44.500;11.188;2023-07-13T01:35:33;27.10;99.90
32865;DHT22;19219;44.500;11.188;2023-07-13T01:37:58;27.10;99.90
32865;DHT22;19219;44.500;11.188;2023-07-13T01:40:25;27.10;99.90
32865;DHT22;19219;44.500;11.188;2023-07-13T01:42:51;27.10;99.90
32865;DHT22;19219;44.500;11.188;2023-07-13T01:45:17;27.10;99.90
32865;DHT22;19219;44.500;11.188;2023-07-13T01:47:42;27.20;99.90
32865;DHT22;19219;44.500;11.188;2023-07-13T01:50:09;27.20;99.90
32865;DHT22;19219;44.500;11.188;2023-07-13T01:52:34;27.10;99.90
32865;DHT22;19219;44.500;11.188;2023-07-13T01:55:00;27.10;99.90
32865;DHT22;19219;44.500;11.188;2023-07-13T01:57:26;27.00;99.90
32865;DHT22;19219;44.500;11.188;2023-07-13T01:59:51;27.10;99.90
32865;DHT22;19219;44.500;11.188;2023-07-13T02:02:17;27.10;99.90
32865;DHT22;19219;44.500;11.188;2023-07-13T02:04:42;27.10;99.90
32865;DHT22;19219;44.500;11.188;2023-07-13T02:07:09;27.10;99.90
32865;DHT22;19219;44.500;11.188;2023-07-13T02:09:35;27.20;99.90
32865;DHT22;19219;44.500;11.188;2023-07-13T02:12:01;27.20;99.90
32865;DHT22;19219;44.500;11.188;2023-07-13T02:14:26;27.30;99.90
32865;DHT22;19219;44.500;11.188;2023-07-13T02:16:52;27.30;99.90
32865;DHT22;19219;44.500;11.188;2023-07-13T02:19:18;27.20;99.90
32865;DHT22;19219;44.500;11.188;2023-07-13T02:21:43;27.10;99.90
32865;DHT22;19219;44.500;11.188;2023-07-13T02:24:09;27.10;99.90
32865;DHT22;19219;44.500;11.188;2023-07-13T02:26:35;27.10;99.90
32865;DHT22;19219;44.500;11.188;2023-07-13T02:29:01;27.10;99.90
32865;DHT22;19219;44.500;11.188;2023-07-13T02:31:27;27.10;99.90
32865;DHT22;19219;44.500;11.188;2023-07-13T02:33:52;27.10;99.90
32865;DHT22;19219;44.500;11.188;2023-07-13T02:36:18;27.10;99.90
32865;DHT22;19219;44.500;11.188;2023-07-13T02:38:45;27.10;99.90
32865;DHT22;19219;44.500;11.188;2023-07-13T02:41:10;27.20;99.90
32865;DHT22;19219;44.500;11.188;2023-07-13T02:43:38;27.20;99.90
32865;DHT22;19219;44.500;11.188;2023-07-13T02:46:03;27.20;99.90
32865;DHT22;19219;44.500;11.188;2023-07-13T02:48:33;27.10;99.90
32865;DHT22;19219;44.500;11.188;2023-07-13T02:50:59;27.00;99.90
32865;DHT22;19219;44.500;11.188;2023-07-13T02:53:24;27.00;99.90
32865;DHT22;19219;44.500;11.188;2023-07-13T02:55:50;26.90;99.90
32865;DHT22;19219;44.500;11.188;2023-07-13T02:58:16;26.90;99.90
32865;DHT22;19219;44.500;11.188;2023-07-13T03:00:46;26.80;99.90
32865;DHT22;19219;44.500;11.188;2023-07-13T03:03:13;26.80;99.90
32865;DHT22;19219;44.500;11.188;2023-07-13T03:05:42;26.80;99.90
32865;DHT22;19219;44.500;11.188;2023-07-13T03:08:10;26.70;99.90
32865;DHT22;19219;44.500;11.188;2023-07-13T03:10:36;26.70;99.90
32865;DHT22;19219;44.500;11.188;2023-07-13T03:13:02;26.70;99.90
32865;DHT22;19219;44.500;11.188;2023-07-13T03:15:28;26.70;99.90
32865;DHT22;19219;44.500;11.188;2023-07-13T03:17:54;26.70;99.90
32865;DHT22;19219;44.500;11.188;2023-07-13T03:20:20;26.70;99.90
32865;DHT22;19219;44.500;11.188;2023-07-13T03:22:45;26.70;99.90
32865;DHT22;19219;44.500;11.188;2023-07-13T03:25:11;26.80;99.90
32865;DHT22;19219;44.500;11.188;2023-07-13T03:27:37;26.80;99.90
32865;DHT22;19219;44.500;11.188;2023-07-13T03:30:04;26.70;99.90
32865;DHT22;19219;44.500;11.188;2023-07-13T03:32:32;26.70;99.90
32865;DHT22;19219;44.500;11.188;2023-07-13T03:34:59;26.70;99.90
32865;DHT22;19219;44.500;11.188;2023-07-13T03:37:25;26.70;99.90
32865;DHT22;19219;44.500;11.188;2023-07-13T03:39:51;26.70;99.90
32865;DHT22;19219;44.500;11.188;2023-07-13T03:42:16;26.70;99.90
32865;DHT22;19219;44.500;11.188;2023-07-13T03:44:42;26.70;99.90
32865;DHT22;19219;44.500;11.188;2023-07-13T03:47:14;26.70;99.90
32865;DHT22;19219;44.500;11.188;2023-07-13T03:49:40;26.70;99.90
32865;DHT22;19219;44.500;11.188;2023-07-13T03:52:06;26.70;99.90
32865;DHT22;19219;44.500;11.188;2023-07-13T03:54:32;26.60;99.90
32865;DHT22;19219;44.500;11.188;2023-07-13T03:56:58;26.60;99.90
32865;DHT22;19219;44.500;11.188;2023-07-13T03:59:24;26.60;99.90
32865;DHT22;19219;44.500;11.188;2023-07-13T04:01:49;26.50;99.90
32865;DHT22;19219;44.500;11.188;2023-07-13T04:04:15;26.20;99.90
32865;DHT22;19219;44.500;11.188;2023-07-13T04:06:41;26.10;99.90
32865;DHT22;19219;44.500;11.188;2023-07-13T04:09:06;26.10;99.90
32865;DHT22;19219;44.500;11.188;2023-07-13T04:11:34;26.10;99.90
32865;DHT22;19219;44.500;11.188;2023-07-13T04:14:01;26.00;99.90
32865;DHT22;19219;44.500;11.188;2023-07-13T04:16:28;26.10;99.90
32865;DHT22;19219;44.500;11.188;2023-07-13T04:18:54;26.00;99.90
32865;DHT22;19219;44.500;11.188;2023-07-13T04:21:24;26.10;99.90
32865;DHT22;19219;44.500;11.188;2023-07-13T04:23:50;26.20;99.90
32865;DHT22;19219;44.500;11.188;2023-07-13T04:26:16;26.20;99.90
32865;DHT22;19219;44.500;11.188;2023-07-13T04:28:42;26.20;99.90
32865;DHT22;19219;44.500;11.188;2023-07-13T04:31:07;26.20;99.90
32865;DHT22;19219;44.500;11.188;2023-07-13T04:33:33;26.10;99.90
32865;DHT22;19219;44.500;11.188;2023-07-13T04:35:59;26.00;99.90
32865;DHT22;19219;44.500;11.188;2023-07-13T04:38:28;26.00;99.90
32865;DHT22;19219;44.500;11.188;2023-07-13T04:40:56;26.10;99.90
32865;DHT22;19219;44.500;11.188;2023-07-13T04:43:23;26.20;99.90
32865;DHT22;19219;44.500;11.188;2023-07-13T04:45:49;26.20;99.90
32865;DHT22;19219;44.500;11.188;2023-07-13T04:48:15;26.20;99.90
32865;DHT22;19219;44.500;11.188;2023-07-13T04:50:41;26.30;99.90
32865;DHT22;19219;44.500;11.188;2023-07-13T04:53:08;26.40;99.90
32865;DHT22;19219;44.500;11.188;2023-07-13T04:55:36;26.40;99.90
32865;DHT22;19219;44.500;11.188;2023-07-13T04:58:02;26.40;99.90
32865;DHT22;19219;44.500;11.188;2023-07-13T05:00:28;26.50;99.90
32865;DHT22;19219;44.500;11.188;2023-07-13T05:02:58;26.60;99.90
32865;DHT22;19219;44.500;11.188;2023-07-13T05:05:25;26.60;99.90
32865;DHT22;19219;44.500;11.188;2023-07-13T05:07:52;26.60;99.90
32865;DHT22;19219;44.500;11.188;2023-07-13T05:10:18;26.60;99.90
32865;DHT22;19219;44.500;11.188;2023-07-13T05:12:44;26.80;99.90
32865;DHT22;19219;44.500;11.188;2023-07-13T05:15:11;26.90;99.90
32865;DHT22;19219;44.500;11.188;2023-07-13T05:17:36;27.00;99.90
32865;DHT22;19219;44.500;11.188;2023-07-13T05:20:05;27.20;99.90
32865;DHT22;19219;44.500;11.188;2023-07-13T05:22:31;27.20;99.90
32865;DHT22;19219;44.500;11.188;2023-07-13T05:24:56;27.20;99.90
32865;DHT22;19219;44.500;11.188;2023-07-13T05:27:22;27.20;99.90
32865;DHT22;19219;44.500;11.188;2023-07-13T05:29:49;27.30;99.90
32865;DHT22;19219;44.500;11.188;2023-07-13T05:32:14;27.30;99.90
32865;DHT22;19219;44.500;11.188;2023-07-13T05:34:40;27.50;99.90
32865;DHT22;19219;44.500;11.188;2023-07-13T05:37:07;27.70;99.90
32865;DHT22;19219;44.500;11.188;2023-07-13T05:39:33;27.80;99.90
32865;DHT22;19219;44.500;11.188;2023-07-13T05:41:58;27.60;99.90
32865;DHT22;19219;44.500;11.188;2023-07-13T05:44:24;27.80;99.90
32865;DHT22;19219;44.500;11.188;2023-07-13T05:46:50;28.00;99.90
32865;DHT22;19219;44.500;11.188;2023-07-13T05:49:15;28.20;99.90
32865;DHT22;19219;44.500;11.188;2023-07-13T05:51:41;28.20;99.90
32865;DHT22;19219;44.500;11.188;2023-07-13T05:54:07;28.20;99.90
32865;DHT22;19219;44.500;11.188;2023-07-13T05:56:32;28.00;99.90
32865;DHT22;19219;44.500;11.188;2023-07-13T05:58:58;27.70;99.90
32865;DHT22;19219;44.500;11.188;2023-07-13T06:01:23;27.60;99.90
32865;DHT22;19219;44.500;11.188;2023-07-13T06:03:49;27.50;99.90
32865;DHT22;19219;44.500;11.188;2023-07-13T06:06:16;27.50;99.90
32865;DHT22;19219;44.500;11.188;2023-07-13T06:08:42;27.50;99.90
32865;DHT22;19219;44.500;11.188;2023-07-13T06:11:17;27.70;99.90
32865;DHT22;19219;44.500;11.188;2023-07-13T06:13:43;27.70;99.90
32865;DHT22;19219;44.500;11.188;2023-07-13T06:16:09;27.60;99.90
32865;DHT22;19219;44.500;11.188;2023-07-13T06:18:36;27.70;99.90
32865;DHT22;19219;44.500;11.188;2023-07-13T06:21:11;27.80;99.90
32865;DHT22;19219;44.500;11.188;2023-07-13T06:23:37;27.70;99.90
32865;DHT22;19219;44.500;11.188;2023-07-13T06:26:04;27.80;99.90
32865;DHT22;19219;44.500;11.188;2023-07-13T06:28:31;28.00;99.90
32865;DHT22;19219;44.500;11.188;2023-07-13T06:30:58;28.10;99.90
32865;DHT22;19219;44.500;11.188;2023-07-13T06:33:24;28.60;99.90
32865;DHT22;19219;44.500;11.188;2023-07-13T06:35:50;29.70;99.90
32865;DHT22;19219;44.500;11.188;2023-07-13T06:38:16;31.30;99.90
32865;DHT22;19219;44.500;11.188;2023-07-13T06:40:42;32.00;99.90
32865;DHT22;19219;44.500;11.188;2023-07-13T06:43:08;32.30;99.90
32865;DHT22;19219;44.500;11.188;2023-07-13T06:45:44;32.30;99.90
32865;DHT22;19219;44.500;11.188;2023-07-13T06:48:15;31.80;99.90
32865;DHT22;19219;44.500;11.188;2023-07-13T06:50:42;31.30;99.90
32865;DHT22;19219;44.500;11.188;2023-07-13T06:53:08;30.80;99.90
32865;DHT22;19219;44.500;11.188;2023-07-13T06:55:34;30.40;99.90
32865;DHT22;19219;44.500;11.188;2023-07-13T06:58:00;30.10;99.90
32865;DHT22;19219;44.500;11.188;2023-07-13T07:00:25;29.40;99.90
32865;DHT22;19219;44.500;11.188;2023-07-13T07:02:51;29.10;99.90
32865;DHT22;19219;44.500;11.188;2023-07-13T07:05:17;28.90;99.90
32865;DHT22;19219;44.500;11.188;2023-07-13T07:07:42;28.90;99.90
32865;DHT22;19219;44.500;11.188;2023-07-13T07:10:08;29.70;99.90
32865;DHT22;19219;44.500;11.188;2023-07-13T07:12:34;30.80;99.90
32865;DHT22;19219;44.500;11.188;2023-07-13T07:15:00;31.60;99.90
32865;DHT22;19219;44.500;11.188;2023-07-13T07:17:25;31.70;99.90
32865;DHT22;19219;44.500;11.188;2023-07-13T07:19:52;31.70;99.90
32865;DHT22;19219;44.500;11.188;2023-07-13T07:22:20;32.00;99.90
32865;DHT22;19219;44.500;11.188;2023-07-13T07:24:45;32.10;99.90
32865;DHT22;19219;44.500;11.188;2023-07-13T07:27:11;32.00;99.90
32865;DHT22;19219;44.500;11.188;2023-07-13T07:29:37;32.00;99.90
32865;DHT22;19219;44.500;11.188;2023-07-13T07:32:03;31.70;99.90
32865;DHT22;19219;44.500;11.188;2023-07-13T07:34:29;31.80;99.90
32865;DHT22;19219;44.500;11.188;2023-07-13T07:36:59;32.00;99.90
32865;DHT22;19219;44.500;11.188;2023-07-13T07:39:25;32.10;99.90
32865;DHT22;19219;44.500;11.188;2023-07-13T07:41:50;32.80;99.90
32865;DHT22;19219;44.500;11.188;2023-07-13T07:44:16;33.40;99.90
32865;DHT22;19219;44.500;11.188;2023-07-13T07:46:42;33.90;99.90
32865;DHT22;19219;44.500;11.188;2023-07-13T07:49:07;34.10;99.90
32865;DHT22;19219;44.500;11.188;2023-07-13T07:51:33;34.80;99.90
32865;DHT22;19219;44.500;11.188;2023-07-13T07:53:59;35.40;99.90
32865;DHT22;19219;44.500;11.188;2023-07-13T07:56:25;35.60;99.90
32865;DHT22;19219;44.500;11.188;2023-07-13T07:58:51;35.80;99.90
32865;DHT22;19219;44.500;11.188;2023-07-13T08:01:16;35.70;99.90
32865;DHT22;19219;44.500;11.188;2023-07-13T08:03:42;36.60;99.90
32865;DHT22;19219;44.500;11.188;2023-07-13T08:06:08;36.70;99.90
32865;DHT22;19219;44.500;11.188;2023-07-13T08:08:34;36.40;99.90
32865;DHT22;19219;44.500;11.188;2023-07-13T08:11:04;36.00;99.90
32865;DHT22;19219;44.500;11.188;2023-07-13T08:13:29;34.50;99.90
32865;DHT22;19219;44.500;11.188;2023-07-13T08:15:55;33.70;99.90
32865;DHT22;19219;44.500;11.188;2023-07-13T08:18:21;32.90;99.90
32865;DHT22;19219;44.500;11.188;2023-07-13T08:20:46;32.50;99.90
32865;DHT22;19219;44.500;11.188;2023-07-13T08:23:13;32.30;99.90
32865;DHT22;19219;44.500;11.188;2023-07-13T08:25:40;32.60;99.90
32865;DHT22;19219;44.500;11.188;2023-07-13T08:28:06;32.90;99.90
32865;DHT22;19219;44.500;11.188;2023-07-13T08:30:32;32.50;99.90
32865;DHT22;19219;44.500;11.188;2023-07-13T08:32:57;32.00;99.90
32865;DHT22;19219;44.500;11.188;2023-07-13T08:35:23;31.60;99.90
32865;DHT22;19219;44.500;11.188;2023-07-13T08:37:51;31.10;99.90
32865;DHT22;19219;44.500;11.188;2023-07-13T08:40:26;30.70;99.90
32865;DHT22;19219;44.500;11.188;2023-07-13T08:42:59;30.40;99.90
32865;DHT22;19219;44.500;11.188;2023-07-13T08:48:21;30.00;99.90
32865;DHT22;19219;44.500;11.188;2023-07-13T08:50:55;29.70;99.90
32865;DHT22;19219;44.500;11.188;2023-07-13T08:53:22;29.40;99.90
32865;DHT22;19219;44.500;11.188;2023-07-13T08:55:51;29.00;99.90
32865;DHT22;19219;44.500;11.188;2023-07-13T08:58:20;28.60;99.90
32865;DHT22;19219;44.500;11.188;2023-07-13T09:00:54;28.50;99.90
32865;DHT22;19219;44.500;11.188;2023-07-13T09:03:26;28.40;99.90
32865;DHT22;19219;44.500;11.188;2023-07-13T09:05:58;28.30;99.90
32865;DHT22;19219;44.500;11.188;2023-07-13T09:08:50;28.20;99.90
32865;DHT22;19219;44.500;11.188;2023-07-13T09:14:25;28.00;99.90
32865;DHT22;19219;44.500;11.188;2023-07-13T09:16:46;28.00;99.90
32865;DHT22;19219;44.500;11.188;2023-07-13T09:19:20;27.90;99.90
32865;DHT22;19219;44.500;11.188;2023-07-13T09:21:48;27.80;99.90
32865;DHT22;19219;44.500;11.188;2023-07-13T09:24:28;27.70;99.90
32865;DHT22;19219;44.500;11.188;2023-07-13T09:26:55;27.60;99.90
32865;DHT22;19219;44.500;11.188;2023-07-13T09:29:29;27.40;99.90
32865;DHT22;19219;44.500;11.188;2023-07-13T09:31:57;27.30;99.90
32865;DHT22;19219;44.500;11.188;2023-07-13T09:34:26;27.10;99.90
32865;DHT22;19219;44.500;11.188;2023-07-13T09:36:51;26.80;99.90
32865;DHT22;19219;44.500;11.188;2023-07-13T09:39:27;26.50;99.90
32865;DHT22;19219;44.500;11.188;2023-07-13T09:44:33;25.60;99.90
32865;DHT22;19219;44.500;11.188;2023-07-13T09:46:59;25.20;99.90
32865;DHT22;19219;44.500;11.188;2023-07-13T09:49:36;25.00;99.90
32865;DHT22;19219;44.500;11.188;2023-07-13T09:52:06;25.00;99.90
32865;DHT22;19219;44.500;11.188;2023-07-13T09:54:36;25.00;99.90
32865;DHT22;19219;44.500;11.188;2023-07-13T09:57:08;25.30;99.90
32865;DHT22;19219;44.500;11.188;2023-07-13T09:59:41;25.40;99.90
32865;DHT22;19219;44.500;11.188;2023-07-13T10:04:59;25.40;99.90
32865;DHT22;19219;44.500;11.188;2023-07-13T10:07:26;25.60;99.90
32865;DHT22;19219;44.500;11.188;2023-07-13T10:09:53;25.50;99.90
32865;DHT22;19219;44.500;11.188;2023-07-13T10:12:20;25.50;99.90
32865;DHT22;19219;44.500;11.188;2023-07-13T10:14:46;25.50;99.90
32865;DHT22;19219;44.500;11.188;2023-07-13T10:17:14;25.50;99.90
32865;DHT22;19219;44.500;11.188;2023-07-13T10:19:41;25.30;99.90
32865;DHT22;19219;44.500;11.188;2023-07-13T10:22:30;25.50;99.90
32865;DHT22;19219;44.500;11.188;2023-07-13T10:24:59;25.70;99.90
32865;DHT22;19219;44.500;11.188;2023-07-13T10:27:44;25.70;99.90
32865;DHT22;19219;44.500;11.188;2023-07-13T10:30:29;26.00;99.90
32865;DHT22;19219;44.500;11.188;2023-07-13T10:33:00;26.40;99.90
32865;DHT22;19219;44.500;11.188;2023-07-13T10:35:28;26.70;99.90
32865;DHT22;19219;44.500;11.188;2023-07-13T10:38:10;27.50;99.90
32865;DHT22;19219;44.500;11.188;2023-07-13T10:40:42;28.20;99.90
32865;DHT22;19219;44.500;11.188;2023-07-13T10:43:24;28.70;99.90
32865;DHT22;19219;44.500;11.188;2023-07-13T10:45:51;28.90;99.90
32865;DHT22;19219;44.500;11.188;2023-07-13T10:48:17;28.70;99.90
32865;DHT22;19219;44.500;11.188;2023-07-13T10:50:46;28.50;99.90
32865;DHT22;19219;44.500;11.188;2023-07-13T10:56:06;29.20;99.90
32865;DHT22;19219;44.500;11.188;2023-07-13T10:58:43;29.40;99.90
32865;DHT22;19219;44.500;11.188;2023-07-13T11:06:28;29.70;99.90
32865;DHT22;19219;44.500;11.188;2023-07-13T11:09:03;29.60;99.90
32865;DHT22;19219;44.500;11.188;2023-07-13T11:11:42;29.90;99.90
32865;DHT22;19219;44.500;11.188;2023-07-13T11:14:37;30.10;99.90
32865;DHT22;19219;44.500;11.188;2023-07-13T11:17:37;30.20;99.90
32865;DHT22;19219;44.500;11.188;2023-07-13T11:22:53;30.10;99.90
32865;DHT22;19219;44.500;11.188;2023-07-13T11:25:34;30.10;99.90
32865;DHT22;19219;44.500;11.188;2023-07-13T11:34:08;30.10;99.90
32865;DHT22;19219;44.500;11.188;2023-07-13T11:36:19;30.20;99.90
32865;DHT22;19219;44.500;11.188;2023-07-13T11:39:16;30.30;99.90
32865;DHT22;19219;44.500;11.188;2023-07-13T11:41:48;30.40;99.90
32865;DHT22;19219;44.500;11.188;2023-07-13T11:44:18;30.30;99.90
32865;DHT22;19219;44.500;11.188;2023-07-13T11:46:50;30.60;99.90
32865;DHT22;19219;44.500;11.188;2023-07-13T11:49:22;30.60;99.90
32865;DHT22;19219;44.500;11.188;2023-07-13T11:51:48;30.70;99.90
32865;DHT22;19219;44.500;11.188;2023-07-13T11:54:32;30.90;99.90
32865;DHT22;19219;44.500;11.188;2023-07-13T11:57:02;30.90;99.90
32865;DHT22;19219;44.500;11.188;2023-07-13T11:59:32;30.70;99.90
32865;DHT22;19219;44.500;11.188;2023-07-13T12:01:59;30.80;99.90
32865;DHT22;19219;44.500;11.188;2023-07-13T12:04:30;30.70;99.90
32865;DHT22;19219;44.500;11.188;2023-07-13T12:07:05;30.20;99.90
32865;DHT22;19219;44.500;11.188;2023-07-13T12:09:32;30.00;99.90
32865;DHT22;19219;44.500;11.188;2023-07-13T12:11:58;30.20;99.90
32865;DHT22;19219;44.500;11.188;2023-07-13T12:14:26;30.30;99.90
32865;DHT22;19219;44.500;11.188;2023-07-13T12:16:53;30.50;99.90
32865;DHT22;19219;44.500;11.188;2023-07-13T12:19:26;30.60;99.90
32865;DHT22;19219;44.500;11.188;2023-07-13T12:21:54;30.60;99.90
32865;DHT22;19219;44.500;11.188;2023-07-13T12:24:22;30.60;99.90
32865;DHT22;19219;44.500;11.188;2023-07-13T12:26:53;30.40;99.90
32865;DHT22;19219;44.500;11.188;2023-07-13T12:29:21;30.40;99.90
32865;DHT22;19219;44.500;11.188;2023-07-13T12:31:49;30.40;99.90
32865;DHT22;19219;44.500;11.188;2023-07-13T12:34:22;30.20;99.90
32865;DHT22;19219;44.500;11.188;2023-07-13T12:36:55;30.10;99.90
32865;DHT22;19219;44.500;11.188;2023-07-13T12:39:35;30.20;99.90
32865;DHT22;19219;44.500;11.188;2023-07-13T12:42:37;30.10;99.90
32865;DHT22;19219;44.500;11.188;2023-07-13T12:47:52;29.90;99.90
32865;DHT22;19219;44.500;11.188;2023-07-13T12:50:21;30.20;99.90
32865;DHT22;19219;44.500;11.188;2023-07-13T12:52:54;30.30;99.90
32865;DHT22;19219;44.500;11.188;2023-07-13T12:55:22;30.40;99.90
32865;DHT22;19219;44.500;11.188;2023-07-13T12:57:56;30.30;99.90
32865;DHT22;19219;44.500;11.188;2023-07-13T13:02:52;30.40;99.90
32865;DHT22;19219;44.500;11.188;2023-07-13T13:05:18;30.50;99.90
32865;DHT22;19219;44.500;11.188;2023-07-13T13:07:45;30.70;99.90
32865;DHT22;19219;44.500;11.188;2023-07-13T13:10:14;30.50;99.90
32865;DHT22;19219;44.500;11.188;2023-07-13T13:12:40;30.50;99.90
32865;DHT22;19219;44.500;11.188;2023-07-13T13:15:11;30.60;99.90
32865;DHT22;19219;44.500;11.188;2023-07-13T13:17:37;30.50;99.90
32865;DHT22;19219;44.500;11.188;2023-07-13T13:20:18;30.70;99.90
32865;DHT22;19219;44.500;11.188;2023-07-13T13:22:44;31.00;99.90
32865;DHT22;19219;44.500;11.188;2023-07-13T13:25:11;31.00;99.90
32865;DHT22;19219;44.500;11.188;2023-07-13T13:27:37;31.20;99.90
32865;DHT22;19219;44.500;11.188;2023-07-13T13:30:11;31.30;99.90
32865;DHT22;19219;44.500;11.188;2023-07-13T13:32:43;31.50;99.90
32865;DHT22;19219;44.500;11.188;2023-07-13T13:35:20;31.70;99.90
32865;DHT22;19219;44.500;11.188;2023-07-13T13:37:46;31.80;99.90
32865;DHT22;19219;44.500;11.188;2023-07-13T13:40:20;31.70;99.90
32865;DHT22;19219;44.500;11.188;2023-07-13T13:42:48;31.80;99.90
32865;DHT22;19219;44.500;11.188;2023-07-13T13:45:14;32.00;99.90
32865;DHT22;19219;44.500;11.188;2023-07-13T13:47:42;32.00;99.90
32865;DHT22;19219;44.500;11.188;2023-07-13T13:50:13;32.00;99.90
32865;DHT22;19219;44.500;11.188;2023-07-13T13:52:40;32.10;99.90
32865;DHT22;19219;44.500;11.188;2023-07-13T13:55:21;32.10;99.90
32865;DHT22;19219;44.500;11.188;2023-07-13T13:57:47;32.00;99.90
32865;DHT22;19219;44.500;11.188;2023-07-13T14:00:15;32.10;99.90
32865;DHT22;19219;44.500;11.188;2023-07-13T14:02:45;32.20;99.90
32865;DHT22;19219;44.500;11.188;2023-07-13T14:05:21;32.20;99.90
32865;DHT22;19219;44.500;11.188;2023-07-13T14:07:47;32.20;99.90
32865;DHT22;19219;44.500;11.188;2023-07-13T14:10:15;32.30;99.90
32865;DHT22;19219;44.500;11.188;2023-07-13T14:12:45;32.20;99.90
32865;DHT22;19219;44.500;11.188;2023-07-13T14:15:25;32.10;99.90
32865;DHT22;19219;44.500;11.188;2023-07-13T14:17:52;32.00;99.90
32865;DHT22;19219;44.500;11.188;2023-07-13T14:20:22;32.10;99.90
32865;DHT22;19219;44.500;11.188;2023-07-13T14:22:49;32.00;99.90
32865;DHT22;19219;44.500;11.188;2023-07-13T14:25:16;32.00;99.90
32865;DHT22;19219;44.500;11.188;2023-07-13T14:27:44;32.00;99.90
32865;DHT22;19219;44.500;11.188;2023-07-13T14:30:18;31.90;99.90
32865;DHT22;19219;44.500;11.188;2023-07-13T14:32:44;31.80;99.90
32865;DHT22;19219;44.500;11.188;2023-07-13T14:35:12;31.70;99.90
32865;DHT22;19219;44.500;11.188;2023-07-13T14:37:39;31.60;99.90
32865;DHT22;19219;44.500;11.188;2023-07-13T14:40:15;31.50;99.90
32865;DHT22;19219;44.500;11.188;2023-07-13T14:42:42;31.30;99.90
32865;DHT22;19219;44.500;11.188;2023-07-13T14:45:16;31.40;99.90
32865;DHT22;19219;44.500;11.188;2023-07-13T14:47:42;31.30;99.90
32865;DHT22;19219;44.500;11.188;2023-07-13T14:50:20;31.20;99.90
32865;DHT22;19219;44.500;11.188;2023-07-13T14:52:47;31.10;99.90
32865;DHT22;19219;44.500;11.188;2023-07-13T14:55:18;31.20;99.90
32865;DHT22;19219;44.500;11.188;2023-07-13T14:57:44;31.30;99.90
32865;DHT22;19219;44.500;11.188;2023-07-13T15:00:19;31.30;99.90
32865;DHT22;19219;44.500;11.188;2023-07-13T15:02:52;31.20;99.90
32865;DHT22;19219;44.500;11.188;2023-07-13T15:05:27;31.20;99.90
32865;DHT22;19219;44.500;11.188;2023-07-13T15:08:00;31.20;99.90
32865;DHT22;19219;44.500;11.188;2023-07-13T15:10:29;31.20;99.90
32865;DHT22;19219;44.500;11.188;2023-07-13T15:13:01;31.20;99.90
32865;DHT22;19219;44.500;11.188;2023-07-13T15:15:31;31.00;99.90
32865;DHT22;19219;44.500;11.188;2023-07-13T15:17:59;30.90;99.90
32865;DHT22;19219;44.500;11.188;2023-07-13T15:20:31;30.80;99.90
32865;DHT22;19219;44.500;11.188;2023-07-13T15:22:58;30.70;99.90
32865;DHT22;19219;44.500;11.188;2023-07-13T15:25:29;30.60;99.90
32865;DHT22;19219;44.500;11.188;2023-07-13T15:27:57;30.70;99.90
32865;DHT22;19219;44.500;11.188;2023-07-13T15:30:25;30.70;99.90
32865;DHT22;19219;44.500;11.188;2023-07-13T15:32:52;30.70;99.90
32865;DHT22;19219;44.500;11.188;2023-07-13T15:35:25;30.70;99.90
32865;DHT22;19219;44.500;11.188;2023-07-13T15:37:51;30.70;99.90
32865;DHT22;19219;44.500;11.188;2023-07-13T15:40:18;30.80;99.90
32865;DHT22;19219;44.500;11.188;2023-07-13T15:42:45;31.00;99.90
32865;DHT22;19219;44.500;11.188;2023-07-13T15:47:42;31.30;99.90
32865;DHT22;19219;44.500;11.188;2023-07-13T15:50:15;31.40;99.90
32865;DHT22;19219;44.500;11.188;2023-07-13T15:52:41;31.50;99.90
32865;DHT22;19219;44.500;11.188;2023-07-13T15:55:11;31.30;99.90
32865;DHT22;19219;44.500;11.188;2023-07-13T15:57:46;31.50;99.90
32865;DHT22;19219;44.500;11.188;2023-07-13T16:00:26;31.50;99.90